Terminal Aerodrome Forecast
Issued by NWS Louisville, KY

Home | Current Version | Previous Version | Text Only | Print | Product List | Glossary On
Versions: 1 2 3 4 5 6 7 8 9 10 11 12 13 14 15 16 17
000
FTUS43 KLMK 181100
TAFSDF
TAF
KSDF 181135Z 1812/1918 VRB03KT P6SM SKC
     FM181500 08008KT P6SM SCT250
     FM190400 10007KT P6SM SCT070 BKN150
     FM190700 10006KT P6SM -SHRA BKN050
     FM191200 12010KT 6SM -SHRA BR BKN020=

USA.gov is the U.S. government's official web portal to all federal, state and local government web resources and services.